Time;durP1;ratioP1;P1;durP2;ratioP2;P2;SDS_P1;SDS_P2;PMS_P1;PMS_P2;Temp;Humidity;BMP_temperature;BMP_pressure;BME280_temperature;BME280_humidity;BME280_pressure;Samples;Min_cycle;Max_cycle;Signal;HPM_P1;HPM_P2
2021/12/29 00:00:43;;;;;;;37.77;17.77;;;;;;;-4.02;100.00;146676.72;1721381;82;21046;-64
2021/12/29 00:03:10;;;;;;;39.13;18.20;;;;;;;-4.10;100.00;146657.47;1722660;82;21043;-63
2021/12/29 00:05:36;;;;;;;34.57;16.60;;;;;;;-4.19;100.00;146635.72;1720062;83;21476;-64
2021/12/29 00:08:05;;;;;;;29.77;15.10;;;;;;;-4.25;100.00;146619.03;1719882;81;21548;-64
2021/12/29 00:10:33;;;;;;;28.93;14.50;;;;;;;-4.23;100.00;146624.16;1724019;83;21079;-62
2021/12/29 00:13:04;;;;;;;33.03;16.03;;;;;;;-4.17;100.00;146639.53;1723057;83;21033;-64
2021/12/29 00:15:31;;;;;;;23.73;13.37;;;;;;;-4.12;100.00;146651.09;1722546;82;21021;-63
2021/12/29 00:17:57;;;;;;;31.10;16.03;;;;;;;-4.10;100.00;146657.47;1729381;81;20986;-63
2021/12/29 00:20:29;;;;;;;33.93;16.53;;;;;;;-4.07;100.00;146665.22;1738131;82;21317;-64
2021/12/29 00:22:58;;;;;;;27.43;15.37;;;;;;;-4.00;100.00;146680.59;1753221;81;21143;-63
2021/12/29 00:25:25;;;;;;;29.80;13.90;;;;;;;-4.00;100.00;146681.84;1765790;80;21020;-63
2021/12/29 00:27:54;;;;;;;30.53;14.63;;;;;;;-4.01;100.00;146678.03;1752392;80;21032;-63
2021/12/29 00:30:21;;;;;;;31.77;13.40;;;;;;;-4.07;100.00;146665.22;1764913;80;20972;-64
2021/12/29 00:32:58;;;;;;;33.70;15.47;;;;;;;-4.10;100.00;146657.47;1731323;81;21013;-63
2021/12/29 00:35:45;;;;;;;32.13;15.37;;;;;;;-4.13;100.00;146649.78;1751298;80;21147;-63
2021/12/29 00:38:30;;;;;;;29.37;13.53;;;;;;;-4.12;100.00;146652.34;1744618;80;21052;-59
2021/12/29 00:41:15;;;;;;;27.63;13.93;;;;;;;-4.14;100.00;146647.22;1758011;81;21045;-59
2021/12/29 00:43:55;;;;;;;26.23;13.67;;;;;;;-4.15;100.00;146644.66;1734945;80;21462;-63
2021/12/29 00:46:41;;;;;;;31.80;15.20;;;;;;;-4.13;100.00;146649.78;1748031;80;21565;-63
2021/12/29 00:49:09;;;;;;;28.33;14.60;;;;;;;-4.09;100.00;146660.08;1768301;80;21096;-62
2021/12/29 00:51:35;;;;;;;32.70;14.47;;;;;;;-4.07;100.00;146665.22;1731971;82;21031;-63
2021/12/29 00:54:04;;;;;;;25.70;14.13;;;;;;;-4.03;100.00;146675.47;1713053;82;21606;-63
2021/12/29 00:56:31;;;;;;;35.57;15.07;;;;;;;-4.01;100.00;146678.03;1720187;82;21126;-62
2021/12/29 00:58:58;;;;;;;29.33;14.77;;;;;;;-3.99;100.00;146683.16;1756476;81;21035;-63
2021/12/29 01:01:25;;;;;;;31.00;14.50;;;;;;;-4.01;100.00;146678.03;1746601;80;22366;-63
2021/12/29 01:03:51;;;;;;;27.13;13.73;;;;;;;-4.10;100.00;146657.47;1746342;80;20950;-62
2021/12/29 01:06:18;;;;;;;25.80;13.17;;;;;;;-4.14;100.00;146645.97;1771585;80;22096;-63
2021/12/29 01:08:45;;;;;;;30.97;14.20;;;;;;;-4.19;100.00;146635.72;1765152;80;20945;-63
2021/12/29 01:11:12;;;;;;;29.23;14.33;;;;;;;-4.24;100.00;146621.59;1751266;80;21058;-63
2021/12/29 01:13:45;;;;;;;27.57;14.43;;;;;;;-4.26;100.00;146616.47;1756585;80;21107;-63
2021/12/29 01:18:36;;;;;;;28.10;14.27;;;;;;;-4.30;100.00;146606.22;1756757;80;21029;-63
2021/12/29 01:21:03;;;;;;;32.07;13.77;;;;;;;-4.30;100.00;146607.48;1769040;80;21021;-63
2021/12/29 01:23:29;;;;;;;26.20;14.33;;;;;;;-4.23;100.00;146624.16;1714556;82;21815;-63
2021/12/29 01:25:56;;;;;;;25.17;13.33;;;;;;;-4.14;100.00;146647.22;1759278;80;21461;-63
2021/12/29 01:28:23;;;;;;;30.73;13.50;;;;;;;-4.09;100.00;146660.08;1741729;81;21045;-63
2021/12/29 01:30:50;;;;;;;29.47;14.77;;;;;;;-4.08;100.00;146662.64;1745759;81;20998;-63
2021/12/29 01:33:18;;;;;;;31.27;14.00;;;;;;;-4.05;100.00;146670.34;1718423;82;21064;-63
2021/12/29 01:35:45;;;;;;;29.43;13.60;;;;;;;-4.00;100.00;146680.59;1745193;81;21041;-63
2021/12/29 01:38:11;;;;;;;29.80;14.07;;;;;;;-4.01;100.00;146678.03;1730109;81;21842;-63
2021/12/29 01:40:39;;;;;;;32.63;14.70;;;;;;;-4.01;100.00;146678.03;1741438;81;21081;-63
2021/12/29 01:43:08;;;;;;;27.40;14.40;;;;;;;-4.09;100.00;146660.08;1736103;82;21017;-63
2021/12/29 01:45:36;;;;;;;41.03;17.87;;;;;;;-4.12;100.00;146652.34;1739387;81;21362;-63
2021/12/29 01:48:04;;;;;;;34.27;15.57;;;;;;;-4.20;100.00;146631.84;1728855;82;21079;-63
2021/12/29 01:50:31;;;;;;;27.80;14.17;;;;;;;-4.28;100.00;146611.34;1728857;81;21488;-63
2021/12/29 01:53:03;;;;;;;27.27;13.93;;;;;;;-4.33;100.00;146601.05;1733203;82;21564;-63
2021/12/29 01:55:31;;;;;;;27.77;13.77;;;;;;;-4.38;100.00;146588.25;1755899;80;21028;-63
2021/12/29 01:58:03;;;;;;;29.77;15.00;;;;;;;-4.42;100.00;146576.69;1746242;80;21159;-63
2021/12/29 02:00:32;;;;;;;28.47;14.27;;;;;;;-4.42;100.00;146578.00;1713434;82;21072;-63
2021/12/29 02:02:59;;;;;;;28.50;14.67;;;;;;;-4.43;100.00;146575.44;1733915;82;21772;-63
2021/12/29 02:05:26;;;;;;;31.73;13.67;;;;;;;-4.41;100.00;146580.56;1711549;81;21124;-63
2021/12/29 02:07:54;;;;;;;30.20;15.07;;;;;;;-4.39;100.00;146585.69;1723272;82;20908;-63
2021/12/29 02:10:22;;;;;;;29.30;14.43;;;;;;;-4.36;100.00;146592.11;1741480;81;21106;-63
2021/12/29 02:12:50;;;;;;;40.33;17.17;;;;;;;-4.40;100.00;146583.11;1739223;81;21049;-64
2021/12/29 02:15:18;;;;;;;50.23;20.73;;;;;;;-4.47;100.00;146565.19;1701583;83;21077;-63
2021/12/29 02:17:48;;;;;;;36.23;15.33;;;;;;;-4.53;100.00;146549.77;1739762;81;21056;-64
2021/12/29 02:20:18;;;;;;;33.47;14.97;;;;;;;-4.53;100.00;146549.77;1729050;81;20989;-63
2021/12/29 02:22:46;;;;;;;32.13;16.70;;;;;;;-4.54;100.00;146548.50;1737214;80;21067;-63
2021/12/29 02:27:51;;;;;;;26.53;14.93;;;;;;;-4.54;100.00;146547.20;1711573;82;22002;-63
2021/12/29 02:30:21;;;;;;;27.73;14.27;;;;;;;-4.49;100.00;146560.06;1721636;82;21036;-63
2021/12/29 02:32:55;;;;;;;31.37;15.13;;;;;;;-4.46;100.00;146567.75;1722986;81;21551;-63
2021/12/29 02:35:22;;;;;;;31.30;14.87;;;;;;;-4.43;100.00;146575.44;1760714;80;20965;-63
2021/12/29 02:37:49;;;;;;;29.30;14.33;;;;;;;-4.42;100.00;146578.00;1754074;80;21009;-63
2021/12/29 02:40:16;;;;;;;35.00;16.07;;;;;;;-4.42;100.00;146578.00;1755850;80;21544;-63
2021/12/29 02:42:43;;;;;;;31.60;15.57;;;;;;;-4.48;100.00;146562.63;1761030;81;21052;-63
2021/12/29 02:45:14;;;;;;;31.03;15.57;;;;;;;-4.52;100.00;146553.63;1757898;81;21013;-63
2021/12/29 02:47:42;;;;;;;26.70;14.20;;;;;;;-4.46;100.00;146569.00;1727575;81;21150;-63
2021/12/29 02:50:10;;;;;;;32.17;15.33;;;;;;;-4.41;100.00;146579.30;1717204;83;21157;-63
2021/12/29 02:52:38;;;;;;;28.93;15.07;;;;;;;-4.35;100.00;146594.67;1749490;80;21151;-63
2021/12/29 02:55:06;;;;;;;28.80;14.03;;;;;;;-4.25;100.00;146619.03;1725370;81;21053;-63
2021/12/29 02:57:34;;;;;;;32.87;15.13;;;;;;;-4.15;100.00;146644.66;1716884;82;20985;-63
2021/12/29 03:00:01;;;;;;;31.77;15.47;;;;;;;-4.05;100.00;146670.34;1755736;80;21044;-63
2021/12/29 03:02:27;;;;;;;29.97;14.90;;;;;;;-3.98;100.00;146687.02;1730582;81;21186;-63
2021/12/29 03:04:59;;;;;;;33.27;15.20;;;;;;;-3.91;100.00;146704.95;1754540;81;21343;-64
2021/12/29 03:07:27;;;;;;;24.77;13.83;;;;;;;-3.82;100.00;146726.78;1738264;82;21523;-64
2021/12/29 03:09:54;;;;;;;27.07;14.47;;;;;;;-3.77;100.00;146739.59;1754630;80;21011;-63
2021/12/29 03:12:20;;;;;;;33.50;15.28;;;;;;;-3.73;100.00;146748.59;1716242;82;21503;-63
2021/12/29 03:14:55;;;;;;;28.77;15.00;;;;;;;-3.70;100.00;146754.97;1721419;82;21054;-63
2021/12/29 03:17:23;;;;;;;26.47;13.40;;;;;;;-3.71;100.00;146753.72;1722708;82;21152;-64
2021/12/29 03:19:50;;;;;;;29.80;14.90;;;;;;;-3.69;100.00;146757.53;1727853;82;21120;-64
2021/12/29 03:22:16;;;;;;;28.83;14.93;;;;;;;-3.67;100.00;146762.66;1717818;82;21053;-62
2021/12/29 03:24:43;;;;;;;34.00;15.80;;;;;;;-3.68;100.00;146760.09;1730373;81;21007;-62
2021/12/29 03:27:11;;;;;;;28.92;15.15;;;;;;;-3.63;100.00;146774.22;1724234;82;21042;-63
2021/12/29 03:29:37;;;;;;;27.03;14.67;;;;;;;-3.58;100.00;146785.78;1720610;82;21137;-64
2021/12/29 03:32:10;;;;;;;29.07;14.17;;;;;;;-3.58;100.00;146785.78;1731338;82;21486;-64
2021/12/29 03:34:38;;;;;;;32.07;15.23;;;;;;;-3.57;100.00;146788.34;1735810;82;21466;-63
2021/12/29 03:37:04;;;;;;;36.90;16.23;;;;;;;-3.62;100.00;146775.53;1720902;82;21115;-63
2021/12/29 03:39:38;;;;;;;29.03;14.40;;;;;;;-3.77;100.00;146739.59;1716501;81;21072;-64
2021/12/29 03:42:00;;;;;;;29.50;15.17;;;;;;;-3.83;100.00;146722.91;1717451;82;22212;-63
2021/12/29 03:44:27;;;;;;;32.40;14.57;;;;;;;-3.86;100.00;146716.52;1724312;82;21512;-63
2021/12/29 03:46:54;;;;;;;34.67;14.43;;;;;;;-3.83;100.00;146724.20;1729033;82;20967;-63
2021/12/29 03:49:20;;;;;;;29.60;14.23;;;;;;;-3.78;100.00;146737.03;1730113;82;21666;-62
2021/12/29 03:51:47;;;;;;;29.17;14.37;;;;;;;-3.73;100.00;146748.59;1725611;82;21072;-63
2021/12/29 03:54:14;;;;;;;31.77;13.67;;;;;;;-3.71;100.00;146752.41;1734967;81;21144;-63
2021/12/29 03:56:40;;;;;;;32.60;16.17;;;;;;;-3.67;100.00;146762.66;1720310;82;21074;-64
2021/12/29 03:59:07;;;;;;;31.97;15.27;;;;;;;-3.67;100.00;146762.66;1732619;81;20975;-66
2021/12/29 04:01:34;;;;;;;28.33;14.10;;;;;;;-3.68;100.00;146760.09;1722740;82;21836;-65
2021/12/29 04:04:03;;;;;;;35.97;16.03;;;;;;;-3.67;100.00;146762.66;1726160;82;21450;-64
2021/12/29 04:06:31;;;;;;;35.57;16.57;;;;;;;-3.63;100.00;146772.97;1732105;82;21556;-64
2021/12/29 04:08:57;;;;;;;35.50;16.43;;;;;;;-3.61;100.00;146778.09;1733969;81;21140;-63
2021/12/29 04:11:24;;;;;;;35.13;17.53;;;;;;;-3.58;100.00;146784.47;1717145;82;21076;-65
2021/12/29 04:13:51;;;;;;;34.17;16.47;;;;;;;-3.54;100.00;146794.73;1735532;82;21757;-63
2021/12/29 04:16:18;;;;;;;34.57;15.93;;;;;;;-3.52;100.00;146799.91;1729736;82;21090;-64
2021/12/29 04:19:05;;;;;;;31.33;16.07;;;;;;;-3.50;100.00;146806.30;1724118;82;21136;-63
2021/12/29 04:21:18;;;;;;;35.80;16.83;;;;;;;-3.45;100.00;146819.12;1717872;82;21080;-63
2021/12/29 04:23:44;;;;;;;38.23;17.23;;;;;;;-3.48;100.00;146811.42;1738258;81;21084;-63
2021/12/29 04:26:11;;;;;;;39.93;17.30;;;;;;;-3.46;100.00;146816.55;1713865;83;21032;-64
2021/12/29 04:28:37;;;;;;;40.20;19.40;;;;;;;-3.45;100.00;146819.12;1713793;83;21043;-63
2021/12/29 04:31:08;;;;;;;36.40;17.23;;;;;;;-3.41;100.00;146826.86;1714696;83;20886;-64
2021/12/29 04:33:36;;;;;;;33.83;16.57;;;;;;;-3.39;100.00;146831.98;1715027;83;21037;-64
2021/12/29 04:36:04;;;;;;;33.33;16.42;;;;;;;-3.42;100.00;146825.56;1714303;83;20918;-59
2021/12/29 04:38:31;;;;;;;37.90;16.73;;;;;;;-3.42;100.00;146825.56;1709311;82;21057;-60
2021/12/29 04:40:58;;;;;;;36.33;16.73;;;;;;;-3.40;100.00;146829.42;1717896;83;21496;-60
2021/12/29 04:43:25;;;;;;;36.63;16.97;;;;;;;-3.40;100.00;146830.69;1715150;83;21159;-59
2021/12/29 04:45:54;;;;;;;33.73;15.87;;;;;;;-3.36;100.00;146839.67;1716733;83;21071;-59
2021/12/29 04:48:24;;;;;;;34.90;16.60;;;;;;;-3.33;100.00;146848.63;1715971;82;21052;-59
2021/12/29 04:50:53;;;;;;;38.40;16.80;;;;;;;-3.31;100.00;146853.81;1716462;81;20998;-59
2021/12/29 04:53:22;;;;;;;38.00;17.02;;;;;;;-3.29;100.00;146857.63;1753688;81;21008;-59
2021/12/29 04:55:49;;;;;;;35.85;16.82;;;;;;;-3.28;100.00;146860.19;1714527;82;21579;-63
2021/12/29 04:58:18;;;;;;;34.73;16.50;;;;;;;-3.25;100.00;146866.62;1720769;82;21082;-63
2021/12/29 05:00:46;;;;;;;35.13;17.07;;;;;;;-3.24;100.00;146869.19;1718949;81;21439;-63
2021/12/29 05:03:13;;;;;;;32.57;15.10;;;;;;;-3.21;100.00;146876.89;1732652;81;21253;-63
2021/12/29 05:05:54;;;;;;;35.17;15.08;;;;;;;-3.23;100.00;146873.02;1727930;82;21466;-63
2021/12/29 05:08:25;;;;;;;36.70;15.77;;;;;;;-3.24;100.00;146870.45;1724929;81;22111;-63
2021/12/29 05:11:00;;;;;;;28.80;14.20;;;;;;;-3.25;100.00;146867.89;1715537;83;21094;-63
2021/12/29 05:13:27;;;;;;;;;;;;;;;-3.23;100.00;146871.75;1718436;83;21439;-63
2021/12/29 05:15:55;;;;;;;28.60;13.93;;;;;;;-3.21;100.00;146878.14;1729110;82;20214;-64
2021/12/29 05:18:24;;;;;;;28.67;13.43;;;;;;;-3.20;100.00;146880.77;1715628;83;21054;-64
2021/12/29 05:20:51;;;;;;;24.70;11.63;;;;;;;-3.21;100.00;146878.14;1714767;82;21798;-65
2021/12/29 05:23:18;;;;;;;25.43;12.18;;;;;;;-3.18;100.00;146885.89;1719919;81;21060;-64
2021/12/29 05:25:46;;;;;;;24.30;11.08;;;;;;;-3.16;100.00;146889.72;1753546;80;21068;-64
2021/12/29 05:28:13;;;;;;;24.98;12.18;;;;;;;-3.13;100.00;146896.14;1748348;81;21083;-65
2021/12/29 05:30:40;;;;;;;25.57;11.93;;;;;;;-3.11;100.00;146902.53;1748182;81;21055;-65
2021/12/29 05:33:07;;;;;;;24.47;11.77;;;;;;;-3.13;100.00;146896.14;1755570;80;21790;-65
2021/12/29 05:35:33;;;;;;;31.90;13.47;;;;;;;-3.18;100.00;146885.89;1756684;81;21083;-64
2021/12/29 05:38:00;;;;;;;29.57;14.13;;;;;;;-3.17;100.00;146887.16;1750974;80;21797;-64
2021/12/29 05:40:28;;;;;;;28.70;13.20;;;;;;;-3.14;100.00;146894.84;1746261;81;21041;-64
2021/12/29 05:42:55;;;;;;;32.03;14.37;;;;;;;-3.11;100.00;146901.28;1748673;81;20937;-64
2021/12/29 05:45:22;;;;;;;32.10;14.47;;;;;;;-3.10;100.00;146905.09;1755472;81;21472;-64
2021/12/29 05:47:48;;;;;;;24.47;11.87;;;;;;;-3.07;100.00;146911.53;1755014;81;21062;-64
2021/12/29 05:50:33;;;;;;;19.55;10.28;;;;;;;-3.06;100.00;146914.09;1669357;83;22003;-64
2021/12/29 05:53:00;;;;;;;22.58;10.45;;;;;;;-3.12;100.00;146899.97;1656838;84;21119;-64
2021/12/29 05:55:27;;;;;;;27.22;10.88;;;;;;;-3.17;100.00;146888.45;1655978;86;21871;-64
2021/12/29 05:57:54;;;;;;;21.57;10.50;;;;;;;-3.23;100.00;146871.75;1653346;85;21015;-64
2021/12/29 06:00:22;;;;;;;22.43;10.60;;;;;;;-3.33;100.00;146848.63;1666850;85;21883;-64
2021/12/29 06:02:49;;;;;;;21.47;10.17;;;;;;;-3.36;100.00;146839.67;1668871;85;21093;-64
2021/12/29 06:05:18;;;;;;;21.90;10.67;;;;;;;-3.41;100.00;146826.86;1657631;84;21183;-64
2021/12/29 06:07:45;;;;;;;21.23;9.60;;;;;;;-3.46;100.00;146816.55;1665376;83;21078;-64
2021/12/29 06:10:12;;;;;;;23.00;9.73;;;;;;;-3.50;100.00;146806.30;1652959;85;21982;-65
2021/12/29 06:12:41;;;;;;;19.47;9.80;;;;;;;-3.49;100.00;146808.86;1654446;86;21086;-65
2021/12/29 06:15:09;;;;;;;27.90;13.80;;;;;;;-3.46;100.00;146816.55;1665748;85;21562;-65
2021/12/29 06:17:38;;;;;;;23.27;9.83;;;;;;;-3.38;100.00;146834.55;1669217;85;20993;-64
2021/12/29 06:20:06;;;;;;;18.77;9.50;;;;;;;-3.37;100.00;146837.11;1648259;85;21580;-66
2021/12/29 06:22:33;;;;;;;30.70;13.37;;;;;;;-3.40;100.00;146829.42;1657444;86;21633;-65
2021/12/29 06:25:00;;;;;;;26.07;12.03;;;;;;;-3.51;100.00;146803.73;1653008;84;21034;-67
2021/12/29 06:27:27;;;;;;;37.33;16.17;;;;;;;-3.59;99.42;146783.22;1651011;84;21588;-66
2021/12/29 06:29:54;;;;;;;25.53;12.40;;;;;;;-3.65;98.68;146767.78;1674359;84;21014;-66
2021/12/29 06:32:20;;;;;;;21.57;9.63;;;;;;;-3.74;98.28;146746.03;1673101;84;22144;-67
2021/12/29 06:34:47;;;;;;;18.70;9.50;;;;;;;-3.78;97.92;146737.03;1655540;84;21571;-65
2021/12/29 06:37:13;;;;;;;19.90;9.50;;;;;;;-3.81;98.51;146729.34;1673292;83;21088;-66
2021/12/29 06:39:42;;;;;;;29.23;12.87;;;;;;;-3.74;99.50;146747.28;1665035;84;21084;-66
2021/12/29 06:42:09;;;;;;;26.57;11.37;;;;;;;-3.66;99.63;146766.53;1660093;84;21783;-66
2021/12/29 06:44:35;;;;;;;18.90;9.40;;;;;;;-3.65;99.60;146767.78;1660632;84;21091;-67
2021/12/29 06:47:03;;;;;;;20.73;8.40;;;;;;;-3.60;100.00;146780.66;1662607;84;21481;-66
2021/12/29 06:49:30;;;;;;;18.17;8.73;;;;;;;-3.50;100.00;146805.03;1639644;85;21954;-66
2021/12/29 06:51:57;;;;;;;23.37;11.10;;;;;;;-3.38;100.00;146834.55;1666659;83;21116;-67
2021/12/29 06:54:23;;;;;;;21.37;9.38;;;;;;;-3.29;100.00;146856.38;1663560;84;21118;-59
2021/12/29 06:56:50;;;;;;;19.93;9.33;;;;;;;-3.24;100.00;146870.45;1668968;84;21165;-66
2021/12/29 06:59:17;;;;;;;24.73;11.20;;;;;;;-3.19;100.00;146882.02;1666468;84;21123;-60
2021/12/29 07:01:44;;;;;;;48.10;20.20;;;;;;;-3.18;99.71;146885.89;1674428;83;21110;-59
2021/12/29 07:04:10;;;;;;;25.47;11.50;;;;;;;-3.22;99.47;146875.58;1673262;83;21090;-67
2021/12/29 07:06:37;;;;;;;25.90;11.13;;;;;;;-3.27;98.31;146862.75;1667777;84;21141;-67
2021/12/29 07:09:04;;;;;;;20.20;9.93;;;;;;;-3.32;98.65;146851.25;1667695;84;21128;-66
2021/12/29 07:11:30;;;;;;;19.70;9.63;;;;;;;-3.34;98.71;146844.81;1668216;84;21868;-66
2021/12/29 07:14:00;;;;;;;20.43;9.93;;;;;;;-3.33;99.02;146847.37;1666842;84;21146;-67
2021/12/29 07:16:26;;;;;;;21.40;9.98;;;;;;;-3.28;99.41;146858.94;1674056;84;21073;-66
2021/12/29 07:18:54;;;;;;;24.63;10.47;;;;;;;-3.20;99.82;146880.77;1670285;84;22383;-66
2021/12/29 07:21:20;;;;;;;20.80;8.87;;;;;;;-3.10;100.00;146905.09;1669667;84;21067;-66
2021/12/29 07:23:48;;;;;;;20.23;9.03;;;;;;;-3.03;99.86;146921.80;1661440;85;21429;-59
2021/12/29 07:26:15;;;;;;;18.70;9.63;;;;;;;-2.98;99.99;146934.67;1674639;84;21090;-68
2021/12/29 07:28:41;;;;;;;22.95;9.75;;;;;;;-2.92;100.00;146950.06;1667332;84;21048;-68
2021/12/29 07:31:08;;;;;;;20.80;9.37;;;;;;;-2.86;100.00;146964.19;1667096;84;21088;-67
2021/12/29 07:33:35;;;;;;;18.43;9.07;;;;;;;-2.80;100.00;146979.59;1667070;84;21647;-67
2021/12/29 07:36:02;;;;;;;17.95;8.33;;;;;;;-2.75;99.63;146992.42;1665757;84;21162;-67
2021/12/29 07:38:29;;;;;;;16.87;8.23;;;;;;;-2.74;99.26;146993.72;1666645;84;21647;-60
2021/12/29 07:40:56;;;;;;;17.73;8.28;;;;;;;-2.76;98.98;146989.86;1673725;83;21180;-60
2021/12/29 07:43:24;;;;;;;16.33;8.57;;;;;;;-2.81;98.62;146977.03;1673160;84;21069;-61
2021/12/29 07:45:54;;;;;;;37.73;14.60;;;;;;;-2.82;98.57;146973.16;1671848;84;21593;-61
2021/12/29 07:48:25;;;;;;;30.03;13.20;;;;;;;-2.81;97.88;146975.72;1665436;84;21917;-67
2021/12/29 07:50:49;;;;;;;21.93;10.27;;;;;;;-2.84;97.04;146968.02;1655839;84;21092;-68
2021/12/29 07:53:15;;;;;;;19.37;9.27;;;;;;;-3.00;95.42;146929.50;1664301;85;21078;-67
2021/12/29 07:58:24;;;;;;;124.77;40.90;;;;;;;-3.24;94.68;146870.45;1653203;84;21394;-60
2021/12/29 08:00:51;;;;;;;59.33;22.07;;;;;;;-3.31;94.91;146853.81;1654147;84;21159;-61
2021/12/29 08:03:18;;;;;;;25.77;11.00;;;;;;;-3.26;96.25;146864.06;1655961;85;21524;-60
2021/12/29 08:05:45;;;;;;;20.30;9.73;;;;;;;-3.19;95.72;146883.33;1655883;84;21118;-67
2021/12/29 08:08:12;;;;;;;19.60;9.30;;;;;;;-3.20;95.57;146880.77;1657387;85;21132;-67
2021/12/29 08:10:40;;;;;;;47.45;18.25;;;;;;;-3.21;95.85;146878.14;1643582;86;21190;-67
2021/12/29 08:13:07;;;;;;;35.00;14.63;;;;;;;-3.16;95.80;146889.72;1640619;86;21247;-67
2021/12/29 08:15:35;;;;;;;26.90;11.87;;;;;;;-3.12;96.12;146898.72;1669197;84;21075;-67
2021/12/29 08:18:04;;;;;;;23.77;9.63;;;;;;;-3.04;96.41;146919.23;1655341;84;21096;-61
2021/12/29 08:20:32;;;;;;;29.23;9.73;;;;;;;-3.04;95.90;146919.23;1638858;86;21585;-67
2021/12/29 08:22:59;;;;;;;20.20;9.40;;;;;;;-3.00;96.12;146929.50;1635568;86;21580;-58
2021/12/29 08:25:26;;;;;;;22.58;9.90;;;;;;;-2.94;96.52;146943.63;1642108;85;21799;-59
2021/12/29 08:27:53;;;;;;;22.65;9.60;;;;;;;-2.90;96.47;146955.19;1665997;84;21232;-67
2021/12/29 08:30:20;;;;;;;21.00;9.80;;;;;;;-2.80;96.92;146979.59;1658287;84;21077;-67
2021/12/29 08:32:47;;;;;;;24.63;10.17;;;;;;;-2.68;97.38;147009.12;1645151;85;21631;-60
2021/12/29 08:35:14;;;;;;;22.67;9.90;;;;;;;-2.56;97.45;147037.34;1659029;84;21140;-66
2021/12/29 08:37:42;;;;;;;82.37;31.03;;;;;;;-2.44;97.55;147068.19;1657627;84;21147;-70
2021/12/29 08:40:10;;;;;;;45.73;18.45;;;;;;;-2.39;96.82;147081.03;1660375;84;21567;-67
2021/12/29 08:42:38;;;;;;;30.43;12.95;;;;;;;-2.39;96.64;147081.03;1665548;83;21103;-59
2021/12/29 08:45:09;;;;;;;22.73;11.70;;;;;;;-2.41;96.26;147075.89;1664476;84;21086;-67
2021/12/29 08:47:38;;;;;;;18.65;9.13;;;;;;;-2.48;96.28;147057.94;1665258;84;22106;-69
2021/12/29 08:50:07;;;;;;;19.17;9.40;;;;;;;-2.44;96.68;147068.19;1665794;84;21627;-67
2021/12/29 08:52:35;;;;;;;21.77;9.50;;;;;;;-2.34;96.96;147092.59;1663759;84;21097;-66
2021/12/29 08:55:04;;;;;;;20.40;8.70;;;;;;;-2.29;95.85;147104.17;1643814;85;21541;-59
2021/12/29 08:57:31;;;;;;;19.67;9.75;;;;;;;-2.38;95.23;147083.59;1645041;85;21593;-59
2021/12/29 08:59:58;;;;;;;17.12;8.45;;;;;;;-2.45;95.34;147065.63;1669653;84;21588;-60
2021/12/29 09:02:25;;;;;;;20.32;8.80;;;;;;;-2.46;95.59;147063.06;1660883;84;21155;-60
2021/12/29 09:04:52;;;;;;;19.82;9.15;;;;;;;-2.42;96.01;147072.06;1661877;84;21794;-67
2021/12/29 09:07:20;;;;;;;19.07;9.25;;;;;;;-2.38;96.14;147083.59;1661638;85;21271;-58
2021/12/29 09:09:46;;;;;;;25.60;11.08;;;;;;;-2.31;96.37;147100.30;1662392;84;21154;-60
2021/12/29 09:12:13;;;;;;;16.67;8.60;;;;;;;-2.26;95.88;147113.13;1637929;85;21106;-59
2021/12/29 09:14:41;;;;;;;17.32;8.65;;;;;;;-2.27;95.72;147110.56;1638448;84;21832;-67
2021/12/29 09:17:08;;;;;;;16.37;7.50;;;;;;;-2.28;95.89;147106.75;1658911;84;21119;-61
2021/12/29 09:19:39;;;;;;;21.02;9.48;;;;;;;-2.21;96.26;147124.70;1633144;86;22210;-59
2021/12/29 09:22:04;;;;;;;25.32;11.45;;;;;;;-2.15;96.36;147140.11;1638051;85;22189;-61
2021/12/29 09:24:31;;;;;;;38.65;17.40;;;;;;;-2.08;96.58;147158.12;1661643;84;21169;-60
2021/12/29 09:26:58;;;;;;;30.05;13.65;;;;;;;-2.02;96.60;147173.53;1634727;85;21566;-60
2021/12/29 09:29:27;;;;;;;20.45;9.80;;;;;;;-1.96;96.57;147187.67;1636141;86;21108;-69
2021/12/29 09:31:54;;;;;;;15.55;9.05;;;;;;;-1.92;96.31;147196.64;1632109;86;21134;-70
2021/12/29 09:34:21;;;;;;;29.55;13.48;;;;;;;-1.89;96.24;147205.64;1632382;86;21181;-69
2021/12/29 09:36:49;;;;;;;26.60;11.22;;;;;;;-1.84;96.42;147217.22;1631688;86;21111;-69
2021/12/29 09:39:25;;;;;;;20.68;9.83;;;;;;;-1.77;96.39;147235.20;1634763;86;21146;-70
2021/12/29 09:41:52;;;;;;;24.52;10.80;;;;;;;-1.74;96.13;147241.64;1642419;85;21071;-71
2021/12/29 09:44:19;;;;;;;21.82;9.90;;;;;;;-1.73;96.20;147245.47;1640309;85;21082;-70
2021/12/29 09:46:48;;;;;;;24.23;10.08;;;;;;;-1.68;96.34;147255.75;1664784;84;21773;-71
2021/12/29 09:49:16;;;;;;;19.67;9.93;;;;;;;-1.64;96.44;147267.33;1630728;86;21271;-70
2021/12/29 09:51:43;;;;;;;24.67;9.43;;;;;;;-1.57;96.32;147284.03;1660648;84;21166;-70
2021/12/29 09:54:09;;;;;;;19.87;10.13;;;;;;;-1.60;95.52;147276.34;1646380;85;21112;-70
2021/12/29 09:56:37;;;;;;;22.93;9.60;;;;;;;-1.67;95.43;147258.31;1664252;84;22238;-70
2021/12/29 09:59:04;;;;;;;22.07;10.90;;;;;;;-1.73;95.22;147245.47;1677613;83;21129;-62
2021/12/29 10:01:32;;;;;;;24.65;11.78;;;;;;;-1.72;95.61;147246.78;1657792;84;21310;-61
2021/12/29 10:03:58;;;;;;;23.90;10.45;;;;;;;-1.68;95.86;147257.06;1657616;84;21172;-61
2021/12/29 10:06:25;;;;;;;20.40;9.93;;;;;;;-1.61;96.09;147273.77;1657581;84;21160;-63
2021/12/29 10:08:54;;;;;;;18.47;9.70;;;;;;;-1.56;95.80;147286.61;1679835;83;21050;-61
2021/12/29 10:11:28;;;;;;;21.77;10.18;;;;;;;-1.57;95.50;147284.03;1671046;84;21064;-62
2021/12/29 10:13:55;;;;;;;25.23;10.72;;;;;;;-1.59;95.33;147280.16;1649508;85;21073;-63
2021/12/29 10:16:28;;;;;;;24.18;10.55;;;;;;;-1.58;95.32;147281.47;1662809;84;22559;-62
2021/12/29 10:19:07;;;;;;;;;;;;;;;-1.59;95.45;147280.16;1650489;84;21062;-61
2021/12/29 10:21:35;;;;;;;27.77;10.63;;;;;;;-1.58;95.69;147281.47;1659344;84;20523;-60
2021/12/29 10:24:05;;;;;;;26.57;10.80;;;;;;;-1.55;95.51;147289.19;1656019;84;21108;-61
2021/12/29 10:26:35;;;;;;;22.20;10.75;;;;;;;-1.57;95.04;147284.03;1657210;84;21125;-62
2021/12/29 10:29:06;;;;;;;24.55;10.82;;;;;;;-1.62;94.75;147271.20;1661869;84;21177;-62
2021/12/29 10:31:39;;;;;;;23.22;10.50;;;;;;;-1.66;94.96;147262.19;1656971;84;21028;-60
2021/12/29 10:34:13;;;;;;;24.95;11.40;;;;;;;-1.65;95.38;147263.50;1634570;86;21461;-61
2021/12/29 10:36:47;;;;;;;22.65;11.08;;;;;;;-1.61;95.69;147273.77;1661302;84;21103;-62
2021/12/29 10:39:24;;;;;;;25.97;11.88;;;;;;;-1.57;95.78;147284.03;1659992;84;21093;-61
2021/12/29 10:42:01;;;;;;;28.15;11.22;;;;;;;-1.57;95.17;147282.73;1663003;84;21153;-61
2021/12/29 10:44:42;;;;;;;25.55;11.30;;;;;;;-1.65;95.05;147263.50;1660927;84;21066;-61
2021/12/29 10:47:22;;;;;;;25.35;12.28;;;;;;;-1.67;94.82;147258.31;1674115;83;21066;-61
2021/12/29 10:49:55;;;;;;;24.40;10.58;;;;;;;-1.71;94.67;147249.34;1667301;84;21707;-61
2021/12/29 10:52:33;;;;;;;18.73;8.53;;;;;;;-1.71;95.15;147249.34;1653697;84;21091;-61
2021/12/29 10:55:00;;;;;;;24.80;11.70;;;;;;;-1.67;95.44;147258.31;1655026;83;21369;-62
2021/12/29 10:57:27;;;;;;;21.02;10.60;;;;;;;-1.65;95.54;147264.75;1649314;84;21317;-61
2021/12/29 10:59:57;;;;;;;21.68;9.73;;;;;;;-1.63;95.41;147268.64;1651321;85;21136;-61
2021/12/29 11:02:29;;;;;;;32.42;14.90;;;;;;;-1.65;94.54;147263.50;1644575;85;21091;-61
2021/12/29 11:05:05;;;;;;;30.10;13.62;;;;;;;-1.78;94.24;147232.62;1650504;85;21142;-62
2021/12/29 11:07:33;;;;;;;43.78;18.35;;;;;;;-1.90;94.55;147201.77;1652181;84;22213;-61
2021/12/29 11:10:14;;;;;;;44.18;18.40;;;;;;;-1.90;94.95;147201.77;1650817;85;21059;-62
2021/12/29 11:12:53;;;;;;;25.23;11.70;;;;;;;-1.93;95.13;147194.06;1644888;85;21139;-61
2021/12/29 11:15:25;;;;;;;28.00;10.95;;;;;;;-1.91;95.58;147199.20;1651632;85;21555;-61
2021/12/29 11:17:55;;;;;;;23.65;11.12;;;;;;;-1.85;95.86;147214.66;1644436;85;21063;-62
2021/12/29 11:20:24;;;;;;;21.57;11.15;;;;;;;-1.79;96.00;147228.75;1625962;86;22249;-63